![]() |
EMODnet Physics ERDDAP
Easier access to scientific data |
log in|
Brought to you by EMODnet Physics |
| Dataset Title: | NDBC - Collection of dew point temperature (DEWT) TimeSeries - IN SITU MultiPointTimeSeriesObservation
|
| Institution: | NDBC (Dataset ID: TS_DEWT_NDBC) |
| Information: | Summary
| License
| FGDC
| ISO 19115
| Metadata
| Background
| Subset
| Data Access Form
| Make a graph
|
| Name | Last modified | Size | Description | |
|---|---|---|---|---|
| Parent Directory | - | - | ||
| 45023_TS_DEWT_052015.nc | 01-Jan-2025 22:36 | 1627761 | ||
| 45023_TS_DEWT_052016.nc | 01-Jan-2025 22:38 | 1627790 | ||
| 45023_TS_DEWT_052017.nc | 01-Jan-2025 22:40 | 1625929 | ||
| 45023_TS_DEWT_052018.nc | 01-Jan-2025 22:42 | 1626594 | ||
| 45023_TS_DEWT_052019.nc | 01-Jan-2025 22:44 | 1627418 | ||
| 45023_TS_DEWT_052023.nc | 01-Jan-2025 22:53 | 1627510 | ||
| 45023_TS_DEWT_052025.nc | 18-Jan-2026 18:43 | 1466274 | ||
| 45023_TS_DEWT_062011.nc | 01-Jan-2025 22:32 | 1626951 | ||
| 45023_TS_DEWT_062013.nc | 01-Jan-2025 22:34 | 1627692 | ||
| 45023_TS_DEWT_062014.nc | 01-Jan-2025 22:35 | 1627035 | ||
| 45023_TS_DEWT_062015.nc | 01-Jan-2025 22:36 | 1475782 | ||
| 45023_TS_DEWT_062016.nc | 01-Jan-2025 22:38 | 1154142 | ||
| 45023_TS_DEWT_062017.nc | 01-Jan-2025 22:40 | 1473716 | ||
| 45023_TS_DEWT_062018.nc | 01-Jan-2025 22:42 | 1477351 | ||
| 45023_TS_DEWT_062019.nc | 01-Jan-2025 22:44 | 1471363 | ||
| 45023_TS_DEWT_062020.nc | 01-Jan-2025 22:46 | 1478902 | ||
| 45023_TS_DEWT_062021.nc | 01-Jan-2025 22:48 | 591461 | ||
| 45023_TS_DEWT_062023.nc | 01-Jan-2025 22:53 | 1473077 | ||
| 45023_TS_DEWT_062025.nc | 18-Jan-2026 18:43 | 1627599 | ||
| 45023_TS_DEWT_072010.nc | 01-Jan-2025 22:31 | 608785 | ||
| 45023_TS_DEWT_072011.nc | 01-Jan-2025 22:32 | 1478732 | ||
| 45023_TS_DEWT_072012.nc | 01-Jan-2025 22:33 | 1153738 | ||
| 45023_TS_DEWT_072013.nc | 01-Jan-2025 22:34 | 1165792 | ||
| 45023_TS_DEWT_072014.nc | 01-Jan-2025 22:35 | 1161177 | ||
| 45023_TS_DEWT_072015.nc | 01-Jan-2025 22:36 | 1461041 | ||
| 45023_TS_DEWT_072016.nc | 01-Jan-2025 22:38 | 1465898 | ||
| 45023_TS_DEWT_072017.nc | 01-Jan-2025 22:40 | 1467579 | ||
| 45023_TS_DEWT_072018.nc | 01-Jan-2025 22:42 | 1470645 | ||
| 45023_TS_DEWT_072019.nc | 01-Jan-2025 22:44 | 1466088 | ||
| 45023_TS_DEWT_072020.nc | 01-Jan-2025 22:46 | 1470165 | ||
| 45023_TS_DEWT_072021.nc | 01-Jan-2025 22:49 | 1470722 | ||
| 45023_TS_DEWT_072022.nc | 01-Jan-2025 22:51 | 1468083 | ||
| 45023_TS_DEWT_072023.nc | 01-Jan-2025 22:54 | 420892 | ||
| 45023_TS_DEWT_072025.nc | 18-Jan-2026 18:44 | 1470914 | ||
| 45023_TS_DEWT_082010.nc | 01-Jan-2025 22:31 | 1467302 | ||
| 45023_TS_DEWT_082011.nc | 01-Jan-2025 22:32 | 1474844 | ||
| 45023_TS_DEWT_082012.nc | 01-Jan-2025 22:33 | 1473770 | ||
| 45023_TS_DEWT_082013.nc | 01-Jan-2025 22:34 | 1478769 | ||
| 45023_TS_DEWT_082014.nc | 01-Jan-2025 22:35 | 1626774 | ||
| 45023_TS_DEWT_082015.nc | 01-Jan-2025 22:37 | 1473949 | ||
| 45023_TS_DEWT_082016.nc | 01-Jan-2025 22:39 | 1159999 | ||
| 45023_TS_DEWT_082017.nc | 01-Jan-2025 22:41 | 1627422 | ||
| 45023_TS_DEWT_082018.nc | 01-Jan-2025 22:43 | 1626337 | ||
| 45023_TS_DEWT_082019.nc | 01-Jan-2025 22:45 | 1465334 | ||
| 45023_TS_DEWT_082020.nc | 01-Jan-2025 22:47 | 1464518 | ||
| 45023_TS_DEWT_082021.nc | 01-Jan-2025 22:49 | 1473331 | ||
| 45023_TS_DEWT_082022.nc | 01-Jan-2025 22:51 | 1476780 | ||
| 45023_TS_DEWT_082023.nc | 01-Jan-2025 22:55 | 1475305 | ||
| 45023_TS_DEWT_082025.nc | 18-Jan-2026 18:44 | 1467734 | ||
| 45023_TS_DEWT_092010.nc | 01-Jan-2025 22:32 | 1474246 | ||
| 45023_TS_DEWT_092011.nc | 01-Jan-2025 22:33 | 1477197 | ||
| 45023_TS_DEWT_092012.nc | 01-Jan-2025 22:33 | 1477956 | ||
| 45023_TS_DEWT_092014.nc | 01-Jan-2025 22:35 | 1476663 | ||
| 45023_TS_DEWT_092015.nc | 01-Jan-2025 22:37 | 1461030 | ||
| 45023_TS_DEWT_092016.nc | 01-Jan-2025 22:39 | 1466776 | ||
| 45023_TS_DEWT_092017.nc | 01-Jan-2025 22:41 | 1477601 | ||
| 45023_TS_DEWT_092018.nc | 01-Jan-2025 22:43 | 1626667 | ||
| 45023_TS_DEWT_092019.nc | 01-Jan-2025 22:45 | 1477910 | ||
| 45023_TS_DEWT_092020.nc | 01-Jan-2025 22:47 | 1627268 | ||
| 45023_TS_DEWT_092021.nc | 01-Jan-2025 22:50 | 1627649 | ||
| 45023_TS_DEWT_092022.nc | 01-Jan-2025 22:52 | 1478199 | ||
| 45023_TS_DEWT_092023.nc | 01-Jan-2025 22:55 | 1627631 | ||
| 45023_TS_DEWT_092024.nc | 10-Jan-2025 21:58 | 1627493 | ||
| 45023_TS_DEWT_092025.nc | 18-Jan-2026 18:44 | 1163741 | ||
| 45023_TS_DEWT_102010.nc | 01-Jan-2025 22:32 | 1469440 | ||
| 45023_TS_DEWT_102012.nc | 01-Jan-2025 22:34 | 1474017 | ||
| 45023_TS_DEWT_102014.nc | 01-Jan-2025 22:35 | 1473778 | ||
| 45023_TS_DEWT_102015.nc | 01-Jan-2025 22:37 | 1473850 | ||
| 45023_TS_DEWT_102016.nc | 01-Jan-2025 22:39 | 1461072 | ||
| 45023_TS_DEWT_102017.nc | 01-Jan-2025 22:41 | 1477888 | ||
| 45023_TS_DEWT_102018.nc | 01-Jan-2025 22:43 | 1476910 | ||
| 45023_TS_DEWT_102019.nc | 01-Jan-2025 22:45 | 1477224 | ||
| 45023_TS_DEWT_102020.nc | 01-Jan-2025 22:47 | 1475797 | ||
| 45023_TS_DEWT_102021.nc | 01-Jan-2025 22:51 | 1468168 | ||
| 45023_TS_DEWT_102022.nc | 01-Jan-2025 22:52 | 1475486 | ||
| 45023_TS_DEWT_102023.nc | 01-Jan-2025 22:55 | 1473566 | ||
| 45023_TS_DEWT_102024.nc | 20-Jan-2025 06:17 | 1477997 | ||
| 45023_TS_DEWT_102025.nc | 18-Jan-2026 18:44 | 591692 | ||
| 45023_TS_DEWT_112019.nc | 01-Jan-2025 22:46 | 1472209 | ||
| 45023_TS_DEWT_112020.nc | 01-Jan-2025 22:48 | 1468773 | ||